»·PEaware :: N72476 KSLC-KBOI

N72476 :: KSLC-KBOI

FLIGHT INFORMATION

Flight Status: Arrived
Operator: Privately registered:
United States
More flights under this callsign
Pilot: Ted G. (11658)
Aircraft: CESSNA 550 CITATION 2/S2/BRAVO
(C550)
More flights by this aircraft type
Origin: KSLC Salt Lake City Intl
United States
Destination: KBOI Boise Air Terminal/Gowen
United States
More flights between these airports :: More routes between these airports
Route: +CGULL1 TWF BROPH SPUUD3
File this flight plan on PilotEdge
Remarks:
Altitude:
(Current/Filed)
30,000ft
Speed:
(Current/Filed)
330kts
Departed: 14-Apr-20 08:03 PM
Arrived: 14-Apr-20 09:22 PM
Distance/Time
Traveled:
252nm/1:19
Distance/Time
To Go:
Arrived

Flight Plot

Page will automatically refresh every two minutes.


Map Options




Map Legend


Flown Route
Filed Route
Departure Airport
Arrival Airport
Navaid (VOR, NDB)
Fix

Horizontal Profiles

Position Reports

Time Latitude Longitude Heading Altitude Ground
Speed
14-Apr-20 19:36 40.775648 -111.958739 358 4232ft 0kts
14-Apr-20 19:37 40.775648 -111.958739 358 4232ft 0kts
14-Apr-20 19:38 40.775648 -111.958739 358 4232ft 0kts
14-Apr-20 19:39 40.775648 -111.958739 358 4232ft 0kts
14-Apr-20 19:40 40.775648 -111.958739 358 4232ft 0kts
14-Apr-20 19:41 40.775648 -111.958739 358 4232ft 0kts
14-Apr-20 19:42 40.775648 -111.958739 358 4232ft 0kts
14-Apr-20 19:43 40.775648 -111.958739 358 4232ft 0kts
14-Apr-20 19:44 40.775648 -111.958739 358 4232ft 0kts
14-Apr-20 19:45 40.775648 -111.958739 358 4232ft 0kts
14-Apr-20 19:46 40.775648 -111.958739 358 4232ft 0kts
14-Apr-20 19:47 40.775648 -111.958739 358 4232ft 0kts
14-Apr-20 19:48 40.775648 -111.958739 358 4232ft 0kts
14-Apr-20 19:49 40.775648 -111.958739 358 4232ft 0kts
14-Apr-20 19:50 40.775648 -111.958739 358 4232ft 0kts
14-Apr-20 19:51 40.775648 -111.958739 358 4232ft 0kts
14-Apr-20 19:52 40.775648 -111.958739 358 4232ft 0kts
14-Apr-20 19:53 40.775662 -111.958739 359 4232ft 2kts
14-Apr-20 19:54 40.776867 -111.960031 317 4232ft 8kts
14-Apr-20 19:55 40.780433 -111.960019 0 4232ft 19kts
14-Apr-20 19:56 40.787022 -111.960023 0 4232ft 25kts
14-Apr-20 19:57 40.794510 -111.960020 0 4232ft 26kts
14-Apr-20 19:58 40.799351 -111.960266 297 4232ft 6kts
14-Apr-20 19:59 40.799388 -111.960425 277 4232ft 0kts
14-Apr-20 20:00 40.799388 -111.960425 277 4232ft 0kts
14-Apr-20 20:01 40.798286 -111.961932 202 4232ft 12kts
14-Apr-20 20:02 40.768979 -111.963274 187 4998ft 179kts
14-Apr-20 20:03 40.717758 -111.978323 194 7901ft 201kts
14-Apr-20 20:04 40.657568 -111.995293 193 10085ft 259kts
14-Apr-20 20:05 40.574817 -112.018397 193 10093ft 300kts
14-Apr-20 20:06 40.504509 -112.036736 193 10090ft 225kts
14-Apr-20 20:07 40.449009 -112.049316 193 10860ft 198kts
14-Apr-20 20:08 40.386259 -112.061655 198 12806ft 255kts
14-Apr-20 20:09 40.382546 -112.130529 310 14757ft 245kts
14-Apr-20 20:10 40.446642 -112.164744 346 16672ft 268kts
14-Apr-20 20:11 40.520904 -112.180235 347 18570ft 273kts
14-Apr-20 20:12 40.595329 -112.196091 347 20463ft 270kts
14-Apr-20 20:13 40.665764 -112.222785 338 22348ft 260kts
14-Apr-20 20:14 40.731752 -112.255327 338 24218ft 249kts
14-Apr-20 20:15 40.794526 -112.287464 338 26083ft 236kts
14-Apr-20 20:16 40.852800 -112.318772 338 27929ft 219kts
14-Apr-20 20:17 40.906195 -112.348038 341 29766ft 198kts
14-Apr-20 20:18 40.959604 -112.374596 341 30287ft 226kts
14-Apr-20 20:19 41.023259 -112.405493 341 30280ft 260kts
14-Apr-20 20:20 41.096289 -112.427923 342 30279ft 279kts
14-Apr-20 20:21 41.165122 -112.478666 318 30291ft 297kts
14-Apr-20 20:22 41.223520 -112.558179 319 30287ft 303kts
14-Apr-20 20:23 41.284108 -112.636412 322 30283ft 306kts
14-Apr-20 20:24 41.342379 -112.720550 316 30286ft 311kts
14-Apr-20 20:25 41.399375 -112.806998 316 30285ft 312kts
14-Apr-20 20:26 41.456602 -112.894244 316 30283ft 313kts
14-Apr-20 20:27 41.513852 -112.981726 316 30282ft 313kts
14-Apr-20 20:28 41.571354 -113.069310 317 30277ft 314kts
14-Apr-20 20:29 41.628962 -113.157342 317 30259ft 315kts
14-Apr-20 20:30 41.686507 -113.245580 316 30240ft 315kts
14-Apr-20 20:31 41.743880 -113.333803 317 30230ft 315kts
14-Apr-20 20:32 41.801232 -113.422265 317 30229ft 315kts
14-Apr-20 20:33 41.858477 -113.510827 317 30227ft 314kts
14-Apr-20 20:34 41.915510 -113.599315 317 30226ft 314kts
14-Apr-20 20:35 41.972535 -113.688071 316 30228ft 314kts
14-Apr-20 20:36 42.029356 -113.776738 316 30227ft 314kts
14-Apr-20 20:38 42.086312 -113.865905 316 30226ft 314kts
14-Apr-20 20:39 42.143347 -113.955475 316 30243ft 316kts
14-Apr-20 20:40 42.200521 -114.045508 316 30245ft 317kts
14-Apr-20 20:41 42.257772 -114.135954 316 30254ft 317kts
14-Apr-20 20:42 42.314942 -114.226539 316 30263ft 317kts
14-Apr-20 20:43 42.372116 -114.317429 316 30264ft 317kts
14-Apr-20 20:44 42.429016 -114.408164 316 30263ft 317kts
14-Apr-20 20:45 42.486051 -114.499298 316 30262ft 317kts
14-Apr-20 20:46 42.543000 -114.590041 316 30260ft 317kts
14-Apr-20 20:47 42.600145 -114.681076 317 30259ft 316kts
14-Apr-20 20:48 42.659831 -114.768349 318 30251ft 316kts
14-Apr-20 20:49 42.720658 -114.853444 317 30242ft 316kts
14-Apr-20 20:50 42.776942 -114.939370 317 28583ft 281kts
14-Apr-20 20:51 42.825971 -115.012792 317 26589ft 251kts
14-Apr-20 20:52 42.872627 -115.079507 317 24451ft 239kts
14-Apr-20 20:53 42.917323 -115.144964 314 22317ft 236kts
14-Apr-20 20:54 42.961151 -115.210311 314 20180ft 234kts
14-Apr-20 20:55 43.005649 -115.275232 314 17863ft 237kts
14-Apr-20 20:55 43.043322 -115.329570 314 15913ft 235kts
14-Apr-20 20:57 43.093353 -115.405156 310 12487ft 236kts
14-Apr-20 20:58 43.132240 -115.469632 310 11116ft 195kts
14-Apr-20 20:58 43.161243 -115.518174 310 11117ft 200kts
14-Apr-20 21:00 43.204911 -115.580082 316 11115ft 183kts
14-Apr-20 21:01 43.239900 -115.626398 317 11115ft 168kts
14-Apr-20 21:01 43.268479 -115.665363 305 10559ft 190kts
14-Apr-20 21:02 43.292883 -115.732991 298 9902ft 199kts
14-Apr-20 21:04 43.324360 -115.816461 300 8637ft 219kts
14-Apr-20 21:04 43.347832 -115.877240 300 7722ft 214kts
14-Apr-20 21:05 43.375639 -115.949148 300 6623ft 212kts
14-Apr-20 21:06 43.401518 -116.016148 300 5635ft 185kts
14-Apr-20 21:07 43.421883 -116.075320 297 5604ft 166kts
14-Apr-20 21:08 43.443134 -116.138052 297 5601ft 192kts
14-Apr-20 21:09 43.465546 -116.204002 297 5601ft 186kts
14-Apr-20 21:10 43.487597 -116.268311 297 5236ft 179kts
14-Apr-20 21:11 43.507258 -116.325241 298 5107ft 150kts
14-Apr-20 21:12 43.524723 -116.375916 298 5116ft 151kts
14-Apr-20 21:13 43.543774 -116.430322 298 5116ft 160kts
14-Apr-20 21:14 43.566134 -116.480900 344 5112ft 153kts
14-Apr-20 21:15 43.605464 -116.461692 31 5111ft 153kts
14-Apr-20 21:16 43.614697 -116.401959 83 4700ft 164kts
14-Apr-20 21:17 43.608857 -116.357050 111 4616ft 105kts
14-Apr-20 21:18 43.595229 -116.316660 113 4058ft 107kts
14-Apr-20 21:19 43.583209 -116.281306 113 3524ft 107kts
14-Apr-20 21:20 43.570939 -116.245276 113 2964ft 98kts
14-Apr-20 21:21 43.563957 -116.224761 90 2876ft 9kts
14-Apr-20 21:22 43.567113 -116.224317 296 2876ft 14kts
14-Apr-20 21:23 43.568645 -116.228491 340 2876ft 9kts
14-Apr-20 21:24 43.569580 -116.229160 197 2876ft 0kts
14-Apr-20 21:25 43.569580 -116.229160 197 2876ft 0kts
14-Apr-20 21:26 43.569580 -116.229160 197 2876ft 0kts
14-Apr-20 21:27 43.569580 -116.229160 197 2876ft 0kts

Navigation Log

Ident Type
Flight plan parsing failed, navigation log unavailable